.
WxDataArchive / Data Records for 2012-08-12
2012-08-11 August 2012 2012-08-13

Data Records for Sunday, 12 August 2012

Time	Temp	Chill	HIndex	Humid	Dewpt	 Wind 	HiWind	WindDir	Rain 	Barom 
-----	----	-----	------	-----	-----	------	------	-------	-----	----- 
00:00	65.8	65.8	65.8	77	58.4	0	1	270	0.00	29.959 
00:05	65.6	65.6	65.6	78	58.5	0	2	270	0.00	29.959 
00:10	65.6	65.6	65.6	78	58.5	1	2	315	0.00	29.959 
00:15	65.6	65.6	65.6	78	58.5	0	1	315	0.00	29.964 
00:20	65.6	65.6	65.6	78	58.5	1	3	315	0.00	29.964 
00:25	65.5	65.5	65.5	77	58.1	1	3	315	0.00	29.964 
00:30	65.5	65.5	65.5	77	58.1	1	3	315	0.00	29.967 
00:35	65.5	65.5	65.5	77	58.1	1	3	248	0.00	29.967 
00:40	65.5	65.5	65.5	77	58.1	0	2	248	0.00	29.967 
00:45	65.3	65.3	65.3	78	58.3	0	1	248	0.00	29.964 
00:50	65.2	65.2	65.2	78	58.2	0	3	248	0.00	29.964 
00:55	65.0	65.0	65.0	78	58.0	0	2	248	0.00	29.964 
01:00	64.8	64.8	64.8	78	57.8	0	4	248	0.00	29.964 
01:05	64.7	64.7	64.7	78	57.7	0	1	248	0.00	29.964 
01:10	64.5	64.5	64.5	78	57.5	0	1	248	0.00	29.964 
01:15	64.3	64.3	64.3	79	57.6	0	1	248	0.00	29.960 
01:20	64.2	64.2	64.2	79	57.5	0	1	248	0.00	29.960 
01:25	64.0	64.0	64.0	79	57.4	0	1	248	0.00	29.960 
01:30	63.9	63.9	63.9	80	57.6	0	1	248	0.00	29.961 
01:35	63.5	63.5	63.5	81	57.6	0	1	248	0.00	29.961 
01:40	63.4	63.4	63.4	81	57.5	0	0	---	0.00	29.961 
01:45	63.2	63.2	63.2	82	57.6	0	0	---	0.00	29.959 
01:50	62.9	62.9	62.9	83	57.7	0	1	248	0.00	29.959 
01:55	62.7	62.7	62.7	83	57.5	0	0	---	0.00	29.959 
02:00	62.6	62.6	62.6	84	57.7	0	0	---	0.00	29.955 
02:05	62.4	62.4	62.4	84	57.5	0	0	---	0.00	29.955 
02:10	62.1	62.1	62.1	84	57.2	0	0	---	0.00	29.955 
02:15	62.0	62.0	62.0	85	57.4	0	0	---	0.00	29.955 
02:20	61.8	61.8	61.8	85	57.2	0	0	---	0.00	29.955 
02:25	61.6	61.6	61.6	85	57.0	0	0	---	0.00	29.955 
02:30	61.5	61.5	61.5	86	57.3	0	1	248	0.00	29.959 
02:35	61.5	61.5	61.5	86	57.3	0	1	248	0.00	29.959 
02:40	61.3	61.3	61.3	87	57.4	0	1	248	0.00	29.959 
02:45	61.2	61.2	61.2	87	57.3	0	0	---	0.00	29.960 
02:50	61.0	61.0	61.0	87	57.1	0	1	248	0.00	29.960 
02:55	60.9	60.9	60.9	88	57.3	0	0	---	0.00	29.960 
03:00	60.9	60.9	60.9	88	57.3	0	0	---	0.00	29.961 
03:05	60.7	60.7	60.7	88	57.1	0	0	---	0.00	29.961 
03:10	60.5	60.5	60.5	88	56.9	0	0	---	0.00	29.961 
03:15	60.4	60.4	60.4	88	56.8	0	1	248	0.00	29.963 
03:20	60.4	60.4	60.4	88	56.8	0	0	---	0.00	29.963 
03:25	60.2	60.2	60.2	89	56.9	0	1	248	0.00	29.963 
03:30	60.1	60.1	60.1	89	56.8	0	0	---	0.00	29.966 
03:35	60.1	60.1	60.1	89	56.8	0	0	---	0.00	29.966 
03:40	59.9	59.9	59.9	89	56.6	0	0	---	0.00	29.966 
03:45	59.8	59.8	59.8	89	56.5	0	0	---	0.00	29.967 
03:50	59.8	59.8	59.8	89	56.5	0	0	---	0.00	29.967 
03:55	59.6	59.6	59.6	90	56.7	0	0	---	0.00	29.967 
04:00	59.6	59.6	59.6	90	56.7	0	0	---	0.00	29.965 
04:05	59.5	59.5	59.5	90	56.6	0	0	---	0.00	29.965 
04:10	59.3	59.3	59.3	90	56.4	0	1	248	0.00	29.965 
04:15	59.3	59.3	59.3	90	56.4	0	1	248	0.00	29.966 
04:20	59.2	59.2	59.2	90	56.3	0	0	---	0.00	29.966 
04:25	59.0	59.0	59.0	90	56.1	0	1	248	0.00	29.966 
04:30	59.0	59.0	59.0	91	56.4	0	1	248	0.00	29.967 
04:35	58.9	58.9	58.9	91	56.3	0	1	248	0.00	29.967 
04:40	58.9	58.9	58.9	91	56.3	0	0	---	0.00	29.967 
04:45	58.7	58.7	58.7	91	56.1	0	0	---	0.00	29.969 
04:50	58.7	58.7	58.7	91	56.1	0	0	---	0.00	29.969 
04:55	58.6	58.6	58.6	91	56.0	0	0	---	0.00	29.969 
05:00	58.4	58.4	58.4	91	55.8	0	0	---	0.00	29.976 
05:05	58.3	58.3	58.3	91	55.7	0	0	---	0.00	29.976 
05:10	58.3	58.3	58.3	91	55.7	0	0	---	0.00	29.976 
05:15	58.1	58.1	58.1	91	55.5	0	0	---	0.00	29.974 
05:20	58.0	58.0	58.0	91	55.4	0	0	---	0.00	29.974 
05:25	58.0	58.0	58.0	91	55.4	0	0	---	0.00	29.974 
05:30	57.8	57.8	57.8	92	55.5	0	0	---	0.00	29.976 
05:35	57.8	57.8	57.8	92	55.5	0	0	---	0.00	29.976 
05:40	57.8	57.8	57.8	92	55.5	0	0	---	0.00	29.976 
05:45	57.6	57.6	57.6	92	55.3	0	0	---	0.00	29.976 
05:50	57.6	57.6	57.6	92	55.3	0	0	---	0.00	29.976 
05:55	57.5	57.5	57.5	92	55.2	0	0	---	0.00	29.976 
06:00	57.5	57.5	57.5	92	55.2	0	0	---	0.00	29.977 
06:05	57.5	57.5	57.5	92	55.2	0	0	---	0.00	29.977 
06:10	57.5	57.5	57.5	92	55.2	0	0	---	0.00	29.977 
06:15	57.5	57.5	57.5	92	55.2	0	0	---	0.00	29.979 
06:20	57.3	57.3	57.3	92	55.0	0	0	---	0.00	29.979 
06:25	57.3	57.3	57.3	92	55.0	0	0	---	0.00	29.979 
06:30	57.3	57.3	57.3	92	55.0	0	1	248	0.00	29.987 
06:35	57.3	57.3	57.3	92	55.0	0	1	248	0.00	29.987 
06:40	57.3	57.3	57.3	92	55.0	0	1	248	0.00	29.987 
06:45	57.3	57.3	57.3	92	55.0	0	1	248	0.00	29.991 
06:50	57.3	57.3	57.3	92	55.0	0	1	248	0.00	29.991 
06:55	57.3	57.3	57.3	92	55.0	0	1	248	0.00	29.991 
07:00	57.3	57.3	57.3	92	55.0	0	0	---	0.00	29.993 
07:05	57.3	57.3	57.3	92	55.0	0	1	248	0.00	29.993 
07:10	57.3	57.3	57.3	92	55.0	0	1	248	0.00	29.993 
07:15	57.3	57.3	57.3	92	55.0	0	1	248	0.00	29.995 
07:20	57.3	57.3	57.3	92	55.0	0	0	---	0.00	29.995 
07:25	57.3	57.3	57.3	92	55.0	0	0	---	0.00	29.995 
07:30	57.5	57.5	57.5	92	55.2	0	0	---	0.00	29.997 
07:35	57.5	57.5	57.5	92	55.2	0	0	---	0.00	29.997 
07:40	57.6	57.6	57.6	92	55.3	0	0	---	0.00	29.997 
07:45	58.0	58.0	58.0	92	55.7	0	1	248	0.00	30.007 
07:50	58.3	58.3	58.3	92	56.0	0	1	248	0.00	30.007 
07:55	58.4	58.4	58.4	92	56.1	0	1	248	0.00	30.007 
08:00	58.7	58.7	58.7	92	56.4	0	1	248	0.00	30.010 
08:05	59.0	59.0	59.0	92	56.7	0	1	248	0.00	30.010 
08:10	59.3	59.3	59.3	91	56.7	0	1	248	0.00	30.010 
08:15	59.8	59.8	59.8	91	57.2	0	2	248	0.00	30.014 
08:20	60.2	60.2	60.2	90	57.3	0	2	248	0.00	30.014 
08:25	60.5	60.5	60.5	89	57.2	0	3	248	0.00	30.014 
08:30	61.0	61.0	61.0	88	57.4	0	2	248	0.00	30.018 
08:35	61.6	61.6	61.6	87	57.7	1	2	248	0.00	30.018 
08:40	62.0	62.0	62.0	84	57.1	1	2	248	0.00	30.018 
08:45	62.4	62.4	62.4	83	57.2	1	2	248	0.00	30.019 
08:50	62.9	62.9	62.9	81	57.0	1	3	248	0.00	30.019 
08:55	63.2	63.2	63.2	79	56.6	1	3	270	0.00	30.019 
09:00	63.7	63.7	63.7	78	56.7	1	3	270	0.00	30.016 
09:05	64.2	64.2	64.2	77	56.8	1	4	315	0.00	30.016 
09:10	64.7	64.7	64.7	77	57.3	1	2	315	0.00	30.016 
09:15	65.2	65.2	65.2	76	57.4	0	1	315	0.00	30.023 
09:20	65.6	65.6	65.6	75	57.5	1	3	315	0.00	30.023 
09:25	66.3	66.3	66.3	74	57.8	1	2	315	0.00	30.023 
09:30	66.8	66.8	66.8	72	57.5	1	3	315	0.00	30.020 
09:35	67.1	67.1	67.1	72	57.8	1	2	315	0.00	30.020 
09:40	67.4	67.4	67.4	71	57.7	1	3	315	0.00	30.020 
09:45	67.9	67.9	67.9	70	57.7	1	2	315	0.00	30.020 
09:50	68.4	68.4	68.4	70	58.2	1	3	315	0.00	30.020 
09:55	68.8	68.8	68.8	69	58.2	1	3	292	0.00	30.020 
10:00	68.9	68.9	68.9	66	57.1	2	4	292	0.00	30.019 
10:05	69.1	69.1	69.1	66	57.3	2	4	315	0.00	30.019 
10:10	69.1	69.1	69.1	65	56.8	2	4	315	0.00	30.019 
10:15	69.4	69.4	69.4	65	57.1	2	3	292	0.00	30.018 
10:20	69.6	69.6	69.6	64	56.9	1	3	292	0.00	30.018 
10:25	69.9	69.9	69.9	64	57.2	0	2	292	0.00	30.018 
10:30	70.4	70.4	70.4	63	57.2	1	3	292	0.00	30.017 
10:35	70.6	70.6	70.6	61	56.5	1	3	292	0.00	30.017 
10:40	70.8	70.8	70.8	58	55.3	1	3	292	0.00	30.017 
10:45	71.5	71.5	71.5	61	57.3	1	3	292	0.00	30.015 
10:50	72.0	72.0	72.0	58	56.4	1	2	292	0.00	30.015 
10:55	72.0	72.0	72.0	55	54.9	1	3	292	0.00	30.015 
11:00	71.8	71.8	71.8	58	56.2	1	2	292	0.00	30.020 
11:05	72.1	72.1	72.1	56	55.5	1	4	292	0.00	30.020 
11:10	72.7	72.7	72.7	57	56.6	1	4	315	0.00	30.020 
11:15	72.8	72.8	72.8	56	56.2	0	2	315	0.00	30.017 
11:20	72.8	72.8	72.8	56	56.2	1	3	315	0.00	30.017 
11:25	72.8	72.8	72.8	55	55.7	1	2	315	0.00	30.017 
11:30	72.8	72.8	72.8	56	56.2	1	4	315	0.00	30.021 
11:35	72.7	72.7	72.7	55	55.6	1	3	270	0.00	30.021 
11:40	72.7	72.7	72.7	56	56.1	1	3	270	0.00	30.021 
11:45	73.0	73.0	73.0	55	55.9	2	4	270	0.00	30.020 
11:50	73.0	73.0	73.0	54	55.4	2	4	270	0.00	30.020 
11:55	73.3	73.3	73.3	56	56.6	1	3	270	0.00	30.020 
12:00	73.3	73.3	73.3	56	56.6	1	3	0	0.00	30.019 
12:05	73.3	73.3	73.3	54	55.6	1	5	270	0.00	30.019 
12:10	73.2	73.2	73.2	53	55.0	1	3	292	0.00	30.019 
12:15	73.3	73.3	73.3	54	55.6	1	3	292	0.00	30.019 
12:20	73.2	73.2	73.2	51	54.0	1	3	292	0.00	30.019 
12:25	73.0	73.0	73.0	52	54.3	0	2	292	0.00	30.019 
12:30	73.2	73.2	73.2	54	55.5	0	2	292	0.00	30.018 
12:35	73.2	73.2	73.2	55	56.0	0	1	292	0.00	30.018 
12:40	73.3	73.3	73.3	53	55.1	1	2	292	0.00	30.018 
12:45	73.5	73.5	73.5	53	55.3	1	2	292	0.00	30.016 
12:50	73.5	73.5	73.5	52	54.8	1	2	292	0.00	30.016 
12:55	73.3	73.3	73.3	51	54.1	1	2	292	0.00	30.016 
13:00	73.5	73.5	73.5	53	55.3	1	3	292	0.00	30.010 
13:05	73.5	73.5	73.5	53	55.3	0	2	292	0.00	30.010 
13:10	74.6	74.6	74.6	53	56.3	1	4	292	0.00	30.010 
13:15	75.3	75.3	77.7	51	55.9	1	2	292	0.00	30.004 
13:20	75.3	75.3	77.7	50	55.4	1	3	292	0.00	30.004 
13:25	75.3	75.3	77.7	46	53.1	0	1	292	0.00	30.004 
13:30	75.1	75.1	77.7	47	53.5	0	2	292	0.00	30.005 
13:35	75.1	75.1	77.7	48	54.1	0	1	292	0.00	30.005 
13:40	75.1	75.1	77.6	45	52.3	1	3	292	0.00	30.005 
13:45	75.3	75.3	77.7	45	52.5	1	2	292	0.00	30.005 
13:50	75.6	75.6	77.8	43	51.5	0	2	292	0.00	30.005 
13:55	76.0	76.0	78.0	44	52.5	1	3	292	0.00	30.005 
14:00	76.0	76.0	77.9	43	51.9	1	4	315	0.00	30.004 
14:05	76.1	76.1	77.9	41	50.7	2	5	315	0.00	30.004 
14:10	76.1	76.1	78.0	43	52.0	1	4	315	0.00	30.004 
14:15	75.6	75.6	77.7	42	50.9	0	3	315	0.00	30.005 
14:20	76.0	76.0	78.0	46	53.7	1	2	315	0.00	30.005 
14:25	76.3	76.3	77.9	40	50.2	1	4	338	0.00	30.005 
14:30	76.7	76.7	78.1	41	51.2	1	4	338	0.00	29.998 
14:35	77.4	77.4	78.5	41	51.8	1	3	338	0.00	29.998 
14:40	77.4	77.4	78.3	38	49.8	1	3	338	0.00	29.998 
14:45	76.8	76.8	78.1	40	50.6	1	4	338	0.00	29.998 
14:50	76.5	76.5	78.0	40	50.4	1	5	315	0.00	29.998 
14:55	76.1	76.1	77.9	41	50.7	0	2	315	0.00	29.998 
15:00	76.0	76.0	77.9	41	50.6	1	2	315	0.00	29.997 
15:05	76.1	76.1	77.9	40	50.0	1	3	315	0.00	29.997 
15:10	76.3	76.3	78.0	43	52.1	0	2	315	0.00	29.997 
15:15	76.1	76.1	78.0	43	52.0	1	3	315	0.00	29.996 
15:20	75.8	75.8	77.9	44	52.3	1	3	315	0.00	29.996 
15:25	75.4	75.4	77.7	45	52.6	1	5	315	0.00	29.996 
15:30	75.1	75.1	77.7	46	52.9	1	2	270	0.00	29.996 
15:35	74.9	74.9	74.9	47	53.3	1	2	270	0.00	29.996 
15:40	74.7	74.7	74.7	47	53.1	1	2	270	0.00	29.996 
15:45	74.7	74.7	74.7	49	54.3	0	1	270	0.00	29.994 
15:50	74.7	74.7	74.7	50	54.8	0	1	270	0.00	29.994 
15:55	74.7	74.7	74.7	51	55.4	0	1	270	0.00	29.994 
16:00	74.6	74.6	74.6	46	52.4	1	2	270	0.00	29.995 
16:05	74.6	74.6	74.6	47	53.0	0	2	270	0.00	29.995 
16:10	74.6	74.6	74.6	49	54.2	0	2	270	0.00	29.995 
16:15	75.1	75.1	77.7	49	54.6	1	3	270	0.00	29.995 
16:20	75.8	75.8	78.0	50	55.8	1	3	315	0.00	29.995 
16:25	76.0	76.0	78.0	48	54.9	1	2	292	0.00	29.995 
16:30	76.0	76.0	78.0	48	54.9	2	4	270	0.00	29.993 
16:35	75.6	75.6	77.9	47	53.9	1	3	270	0.00	29.993 
16:40	75.6	75.6	77.9	49	55.1	1	3	270	0.00	29.993 
16:45	75.4	75.4	77.8	49	54.9	2	4	315	0.00	29.996 
16:50	75.3	75.3	77.7	48	54.2	1	3	315	0.00	29.996 
16:55	75.3	75.3	77.7	50	55.4	1	3	315	0.00	29.996 
17:00	75.8	75.8	78.0	48	54.7	1	3	270	0.00	29.996 
17:05	76.1	76.1	78.1	47	54.4	1	3	292	0.00	29.996 
17:10	76.0	76.0	78.0	46	53.7	1	3	292	0.00	29.996 
17:15	75.8	75.8	77.9	46	53.5	1	3	292	0.00	29.995 
17:20	75.8	75.8	78.0	48	54.7	1	2	292	0.00	29.995 
17:25	75.6	75.6	77.9	48	54.5	1	2	292	0.00	29.995 
17:30	75.6	75.6	77.9	47	53.9	1	2	292	0.00	29.996 
17:35	75.4	75.4	77.8	48	54.3	1	3	315	0.00	29.996 
17:40	75.3	75.3	77.7	47	53.7	1	2	315	0.00	29.996 
17:45	75.4	75.4	77.8	49	54.9	1	2	315	0.00	30.002 
17:50	75.3	75.3	77.7	47	53.7	0	2	315	0.00	30.002 
17:55	74.9	74.9	74.9	48	53.9	0	2	315	0.00	30.002 
18:00	75.1	75.1	77.7	48	54.1	0	2	315	0.00	29.995 
18:05	75.3	75.3	77.7	48	54.2	1	3	315	0.00	29.995 
18:10	75.3	75.3	77.7	47	53.7	1	2	315	0.00	29.995 
18:15	75.1	75.1	77.7	48	54.1	0	2	315	0.00	30.000 
18:20	74.6	74.6	74.6	47	53.0	1	3	315	0.00	30.000 
18:25	74.2	74.2	74.2	48	53.2	0	2	315	0.00	30.000 
18:30	73.9	73.9	73.9	48	53.0	0	3	315	0.00	29.994 
18:35	73.7	73.7	73.7	49	53.3	0	2	315	0.00	29.994 
18:40	73.5	73.5	73.5	49	53.2	0	1	315	0.00	29.994 
18:45	73.3	73.3	73.3	49	53.0	0	1	315	0.00	29.994 
18:50	73.3	73.3	73.3	50	53.5	0	1	315	0.00	29.994 
18:55	73.3	73.3	73.3	50	53.5	0	1	315	0.00	29.994 
19:00	73.3	73.3	73.3	51	54.1	0	1	315	0.00	29.995 
19:05	73.2	73.2	73.2	50	53.4	0	1	315	0.00	29.995 
19:10	73.2	73.2	73.2	50	53.4	0	1	315	0.00	29.995 
19:15	73.2	73.2	73.2	51	54.0	0	1	315	0.00	29.994 
19:20	73.2	73.2	73.2	52	54.5	0	1	315	0.00	29.994 
19:25	73.2	73.2	73.2	52	54.5	0	1	315	0.00	29.994 
19:30	73.2	73.2	73.2	52	54.5	0	1	315	0.00	29.994 
19:35	73.0	73.0	73.0	52	54.3	0	1	315	0.00	29.994 
19:40	73.0	73.0	73.0	52	54.3	0	1	315	0.00	29.994 
19:45	72.8	72.8	72.8	53	54.7	0	0	---	0.00	29.995 
19:50	72.7	72.7	72.7	54	55.1	0	0	---	0.00	29.995 
19:55	72.5	72.5	72.5	53	54.4	0	0	---	0.00	29.995 
20:00	72.3	72.3	72.3	53	54.2	0	0	---	0.00	29.996 
20:05	72.3	72.3	72.3	54	54.7	0	0	---	0.00	29.996 
20:10	72.1	72.1	72.1	54	54.5	0	0	---	0.00	29.996 
20:15	72.0	72.0	72.0	56	55.4	0	0	---	0.00	29.989 
20:20	71.8	71.8	71.8	55	54.7	0	0	---	0.00	29.989 
20:25	71.5	71.5	71.5	55	54.5	0	0	---	0.00	29.989 
20:30	71.3	71.3	71.3	56	54.8	0	0	---	0.00	29.992 
20:35	70.9	70.9	70.9	58	55.4	0	0	---	0.00	29.992 
20:40	70.8	70.8	70.8	58	55.3	0	0	---	0.00	29.992 
20:45	70.4	70.4	70.4	59	55.4	0	0	---	0.00	29.990 
20:50	70.1	70.1	70.1	58	54.6	0	0	---	0.00	29.990 
20:55	69.8	69.8	69.8	58	54.3	0	0	---	0.00	29.990 
21:00	69.6	69.6	69.6	60	55.1	0	0	---	0.00	29.992 
21:05	69.4	69.4	69.4	62	55.8	0	0	---	0.00	29.992 
21:10	69.3	69.3	69.3	62	55.7	0	0	---	0.00	29.992 
21:15	69.1	69.1	69.1	62	55.5	0	0	---	0.00	29.990 
21:20	68.9	68.9	68.9	63	55.8	0	0	---	0.00	29.990 
21:25	68.8	68.8	68.8	63	55.7	0	0	---	0.00	29.990 
21:30	68.6	68.6	68.6	63	55.5	0	0	---	0.00	29.991 
21:35	68.4	68.4	68.4	65	56.2	0	0	---	0.00	29.991 
21:40	68.1	68.1	68.1	66	56.3	0	0	---	0.00	29.991 
21:45	67.6	67.6	67.6	67	56.2	0	0	---	0.00	29.993 
21:50	67.4	67.4	67.4	67	56.1	0	0	---	0.00	29.993 
21:55	67.1	67.1	67.1	67	55.8	0	0	---	0.00	29.993 
22:00	66.9	66.9	66.9	68	56.0	0	0	---	0.00	29.992 
22:05	66.6	66.6	66.6	69	56.1	0	0	---	0.00	29.992 
22:10	66.6	66.6	66.6	70	56.5	0	0	---	0.00	29.992 
22:15	66.4	66.4	66.4	71	56.7	0	0	---	0.00	29.994 
22:20	66.3	66.3	66.3	71	56.6	0	0	---	0.00	29.994 
22:25	66.1	66.1	66.1	71	56.4	0	0	---	0.00	29.994 
22:30	66.0	66.0	66.0	72	56.7	0	0	---	0.00	29.993 
22:35	65.8	65.8	65.8	73	56.9	0	0	---	0.00	29.993 
22:40	65.6	65.6	65.6	74	57.1	0	0	---	0.00	29.993 
22:45	65.5	65.5	65.5	75	57.4	0	0	---	0.00	29.994 
22:50	65.3	65.3	65.3	75	57.2	0	0	---	0.00	29.994 
22:55	65.3	65.3	65.3	76	57.5	0	0	---	0.00	29.994 
23:00	65.2	65.2	65.2	76	57.4	0	0	---	0.00	29.990 
23:05	65.0	65.0	65.0	76	57.2	0	0	---	0.00	29.990 
23:10	64.8	64.8	64.8	77	57.4	0	0	---	0.00	29.990 
23:15	64.8	64.8	64.8	78	57.8	0	0	---	0.00	29.987 
23:20	64.7	64.7	64.7	78	57.7	0	0	---	0.00	29.987 
23:25	64.7	64.7	64.7	79	58.0	0	0	---	0.00	29.987 
23:30	64.5	64.5	64.5	78	57.5	0	0	---	0.00	29.987 
23:35	64.5	64.5	64.5	79	57.8	0	0	---	0.00	29.987 
23:40	64.5	64.5	64.5	79	57.8	0	0	---	0.00	29.987 
23:45	64.5	64.5	64.5	79	57.8	0	0	---	0.00	29.985 
23:50	64.3	64.3	64.3	80	58.0	0	0	---	0.00	29.985 
23:55	64.2	64.2	64.2	79	57.5	0	0	---	0.00	29.985 

CoCoRaHS
IN-AL-39
A2 Web Hosting
Creative Commons License
GoDaddy
search engine by freefind advanced

loaded 2018-11-17 22:46:20 • last modified 2010-11-18 10:43:29
Privacy PolicyDisclaimer
• wx.awcolley.com is powered by PmWiki v.2002016 •
• all content (unless otherwise noted) © 2018 A W Colley